createdAt,value
2022-12-14T00:01:31.951Z,-0.70
2022-12-14T00:06:41.040Z,-0.80
2022-12-14T00:11:49.555Z,-0.70
2022-12-14T00:16:58.297Z,-0.70
2022-12-14T00:22:06.528Z,-0.80
2022-12-14T00:27:15.547Z,-0.70
2022-12-14T00:32:23.950Z,-0.70
2022-12-14T00:37:32.342Z,-0.70
2022-12-14T00:42:40.928Z,-0.70
2022-12-14T00:47:49.636Z,-0.70
2022-12-14T00:52:57.924Z,-0.60
2022-12-14T00:58:06.622Z,-0.60
2022-12-14T01:03:15.469Z,-0.60
2022-12-14T01:08:24.087Z,-0.60
2022-12-14T01:13:32.373Z,-0.60
2022-12-14T01:18:41.059Z,-0.60
2022-12-14T01:23:49.443Z,-0.60
2022-12-14T01:28:58.099Z,-0.60
2022-12-14T01:34:06.324Z,-0.60
2022-12-14T01:39:14.905Z,-0.60
2022-12-14T01:44:23.388Z,-0.50
2022-12-14T01:49:31.856Z,-0.50
2022-12-14T01:54:40.077Z,-0.50
2022-12-14T01:59:48.940Z,-0.50
2022-12-14T02:04:56.952Z,-0.50
2022-12-14T02:10:05.664Z,-0.50
2022-12-14T02:15:14.013Z,-0.40
2022-12-14T02:20:22.746Z,-0.40
2022-12-14T02:25:31.071Z,-0.30
2022-12-14T02:30:39.692Z,-0.30
2022-12-14T02:35:47.953Z,-0.30
2022-12-14T02:40:56.712Z,-0.20
2022-12-14T02:46:05.122Z,-0.20
2022-12-14T02:51:13.969Z,-0.10
2022-12-14T02:56:22.212Z,-0.10
2022-12-14T03:01:31.142Z,0.00
2022-12-14T03:06:39.338Z,0.00
2022-12-14T03:11:48.361Z,0.00
2022-12-14T03:16:56.694Z,0.00
2022-12-14T03:22:05.239Z,0.00
2022-12-14T03:27:13.378Z,0.00
2022-12-14T03:32:22.271Z,0.00
2022-12-14T03:37:30.940Z,-0.10
2022-12-14T03:42:39.580Z,-0.10
2022-12-14T03:47:48.157Z,-0.10
2022-12-14T03:52:56.718Z,-0.20
2022-12-14T03:58:05.311Z,-0.20
2022-12-14T04:03:14.287Z,-0.30
2022-12-14T04:08:22.734Z,-0.40
2022-12-14T04:13:31.633Z,-0.40
2022-12-14T04:18:39.959Z,-0.50
2022-12-14T04:23:48.993Z,-0.50
2022-12-14T04:28:57.235Z,-0.50
2022-12-14T04:34:06.266Z,-0.60
2022-12-14T04:39:14.989Z,-0.50
2022-12-14T04:44:23.681Z,-0.60
2022-12-14T04:49:32.243Z,-0.60
2022-12-14T04:54:41.336Z,-0.60
2022-12-14T04:59:50.012Z,-0.60
2022-12-14T05:04:58.593Z,-0.60
2022-12-14T05:10:06.984Z,-0.60
2022-12-14T05:15:15.783Z,-0.60
2022-12-14T05:20:24.160Z,-0.70
2022-12-14T05:25:33.267Z,-0.80
2022-12-14T05:30:41.649Z,-0.70
2022-12-14T05:35:50.495Z,-0.80
2022-12-14T05:40:58.752Z,-0.80
2022-12-14T05:46:07.638Z,-0.80
2022-12-14T05:51:16.363Z,-0.80
2022-12-14T05:56:25.304Z,-0.60
2022-12-14T06:01:33.749Z,-0.50
2022-12-14T06:06:43.007Z,-0.50
2022-12-14T06:11:51.448Z,-0.60
2022-12-14T06:17:00.443Z,-0.60
2022-12-14T06:22:08.777Z,-0.60
2022-12-14T06:27:17.503Z,-0.60
2022-12-14T06:32:26.255Z,-0.60
2022-12-14T06:37:35.125Z,-0.50
2022-12-14T06:42:44.441Z,-0.40
2022-12-14T06:47:54.237Z,-0.40
2022-12-14T06:53:03.574Z,-0.40
2022-12-14T06:58:12.261Z,-0.40
2022-12-14T07:03:20.891Z,-0.30
2022-12-14T07:08:29.992Z,-0.30
2022-12-14T07:13:38.489Z,-0.30
2022-12-14T07:18:47.307Z,-0.30
2022-12-14T07:23:55.697Z,-0.30
2022-12-14T07:29:05.186Z,-0.20
2022-12-14T07:34:13.659Z,-0.20
2022-12-14T07:39:22.149Z,-0.10
2022-12-14T07:44:30.857Z,0.00
2022-12-14T07:49:39.818Z,0.00
2022-12-14T07:54:48.420Z,0.10
2022-12-14T07:59:57.558Z,0.20
2022-12-14T08:05:10.691Z,0.30
2022-12-14T08:10:14.531Z,0.40
2022-12-14T08:15:22.904Z,0.50
2022-12-14T08:20:31.697Z,0.60
2022-12-14T08:25:40.344Z,0.70
2022-12-14T08:30:49.595Z,0.80
2022-12-14T08:35:58.533Z,0.80
2022-12-14T08:41:07.338Z,0.80
2022-12-14T08:46:16.214Z,0.70
2022-12-14T08:51:25.030Z,0.60
2022-12-14T08:56:33.538Z,0.60
2022-12-14T09:01:42.771Z,0.50
2022-12-14T09:06:50.883Z,0.60
2022-12-14T09:11:59.838Z,0.60
2022-12-14T09:17:08.473Z,0.60
2022-12-14T09:22:17.059Z,0.60
2022-12-14T09:27:25.810Z,0.70
2022-12-14T09:32:34.988Z,0.60
2022-12-14T09:37:43.433Z,0.60
2022-12-14T09:42:52.501Z,0.70
2022-12-14T09:48:01.495Z,0.90
2022-12-14T09:53:10.555Z,1.00
2022-12-14T09:58:19.187Z,0.90
2022-12-14T10:03:28.482Z,0.80
2022-12-14T10:08:36.324Z,0.80
2022-12-14T10:13:45.262Z,0.70
2022-12-14T10:19:01.430Z,0.80
2022-12-14T10:24:02.736Z,0.90
2022-12-14T10:29:10.904Z,0.80
2022-12-14T10:34:19.970Z,0.90
2022-12-14T10:39:28.533Z,0.90
2022-12-14T10:44:37.598Z,1.00
2022-12-14T10:49:46.250Z,0.90
2022-12-14T10:54:55.534Z,0.70
2022-12-14T11:00:08.997Z,0.50
2022-12-14T11:05:12.722Z,0.50
2022-12-14T11:10:21.375Z,0.70
2022-12-14T11:15:30.246Z,0.80
2022-12-14T11:20:38.346Z,1.00
2022-12-14T11:25:47.253Z,1.00
2022-12-14T11:30:56.059Z,1.00
2022-12-14T11:36:04.980Z,0.90
2022-12-14T11:41:13.812Z,1.00
2022-12-14T11:46:22.937Z,1.00
2022-12-14T11:51:31.373Z,0.90
2022-12-14T11:56:40.311Z,0.90
2022-12-14T12:01:48.820Z,0.90
2022-12-14T12:07:02.844Z,1.00
2022-12-14T12:12:05.772Z,1.00
2022-12-14T12:17:14.761Z,1.00
2022-12-14T12:22:23.798Z,0.90
2022-12-14T12:27:32.729Z,0.80
2022-12-14T12:32:40.966Z,0.70
2022-12-14T12:37:50.450Z,0.60
2022-12-14T12:42:58.837Z,0.50
2022-12-14T12:48:07.865Z,0.40
2022-12-14T12:53:16.310Z,0.30
2022-12-14T12:58:24.893Z,0.30
2022-12-14T13:03:33.457Z,0.10
2022-12-14T13:08:42.836Z,0.10
2022-12-14T13:13:50.976Z,0.10
2022-12-14T13:19:08.684Z,0.10
2022-12-14T13:24:07.997Z,0.10
2022-12-14T13:29:17.200Z,0.10
2022-12-14T13:34:25.559Z,0.10
2022-12-14T13:39:34.508Z,0.00
2022-12-14T13:44:44.194Z,-0.10
2022-12-14T13:50:18.636Z,-0.20
2022-12-14T13:55:00.187Z,-0.20
2022-12-14T14:00:09.028Z,-0.30
2022-12-14T14:05:18.184Z,-0.30
2022-12-14T14:10:27.494Z,-0.40
2022-12-14T14:15:36.224Z,-0.40
2022-12-14T14:20:45.425Z,-0.40
2022-12-14T14:25:53.916Z,-0.50
2022-12-14T14:31:02.886Z,-0.50
2022-12-14T14:36:11.328Z,-0.60
2022-12-14T14:41:20.179Z,-0.60
2022-12-14T14:46:28.848Z,-0.70
2022-12-14T14:51:37.897Z,-0.80
2022-12-14T14:56:49.731Z,-0.90
2022-12-14T15:01:48.278Z,-1.00
2022-12-14T15:06:56.667Z,-0.90
2022-12-14T15:12:05.562Z,-0.80
2022-12-14T15:17:13.915Z,-0.80
2022-12-14T15:22:22.620Z,-0.80
2022-12-14T15:27:31.441Z,-0.80
2022-12-14T15:32:44.321Z,-0.80
2022-12-14T15:37:48.144Z,-0.80
2022-12-14T15:42:57.409Z,-0.80
2022-12-14T15:48:05.983Z,-0.90
2022-12-14T15:53:15.227Z,-0.90
2022-12-14T15:58:23.973Z,-1.00
2022-12-14T16:03:33.184Z,-1.10
2022-12-14T16:08:41.068Z,-1.10
2022-12-14T16:13:49.916Z,-1.10
2022-12-14T16:19:20.366Z,-1.10
2022-12-14T16:24:06.525Z,-1.10
2022-12-14T16:29:14.827Z,-1.10
2022-12-14T16:34:23.636Z,-1.10
2022-12-14T16:39:32.062Z,-1.10
2022-12-14T16:44:41.053Z,-1.00
2022-12-14T16:49:49.415Z,-1.00
2022-12-14T16:54:57.688Z,-1.00
2022-12-14T17:00:06.403Z,-1.10
2022-12-14T17:05:15.290Z,-1.10
2022-12-14T17:10:24.516Z,-1.10
2022-12-14T17:15:33.260Z,-1.20
2022-12-14T17:20:42.021Z,-1.10
2022-12-14T17:25:55.521Z,-1.20
2022-12-14T17:30:53.663Z,-1.20
2022-12-14T17:36:02.452Z,-1.10
2022-12-14T17:41:11.973Z,-1.10
2022-12-14T17:46:21.473Z,-1.10
2022-12-14T17:51:30.510Z,-1.10
2022-12-14T17:56:39.463Z,-1.20
2022-12-14T18:01:49.644Z,-1.20
2022-12-14T18:06:48.664Z,-1.30
2022-12-14T18:12:22.174Z,-1.30
2022-12-14T18:17:11.203Z,-1.20
2022-12-14T18:22:15.065Z,-1.20
2022-12-14T18:27:24.447Z,-1.20
2022-12-14T18:32:34.491Z,-1.30
2022-12-14T18:37:33.532Z,-1.40
2022-12-14T18:42:42.678Z,-1.40
2022-12-14T18:47:51.955Z,-1.40
2022-12-14T18:53:04.904Z,-1.50
2022-12-14T18:58:04.497Z,-1.40
2022-12-14T19:03:14.840Z,-1.40
2022-12-14T19:08:15.037Z,-1.40
2022-12-14T19:13:14.459Z,-1.40
2022-12-14T19:18:24.789Z,-1.40
2022-12-14T19:23:25.348Z,-1.40
2022-12-14T19:28:32.625Z,-1.40
2022-12-14T19:33:26.854Z,-1.40
2022-12-14T19:43:39.539Z,-1.50
2022-12-14T19:48:39.302Z,-1.70
2022-12-14T19:53:48.080Z,-1.60
2022-12-14T19:58:57.012Z,-1.70
2022-12-14T20:04:06.109Z,-1.70
2022-12-14T20:09:14.412Z,-1.70
2022-12-14T20:14:24.692Z,-1.70
2022-12-14T20:19:23.044Z,-1.70
2022-12-14T20:24:31.813Z,-1.70
2022-12-14T20:29:40.893Z,-1.70
2022-12-14T20:34:49.643Z,-1.70
2022-12-14T20:39:58.295Z,-1.70
2022-12-14T20:45:07.515Z,-1.80
2022-12-14T20:50:15.730Z,-1.80
2022-12-14T20:55:25.674Z,-1.80
2022-12-14T21:00:34.302Z,-2.00
2022-12-14T21:05:43.218Z,-2.40
2022-12-14T21:10:51.653Z,-2.70
2022-12-14T21:16:00.771Z,-3.00
2022-12-14T21:21:09.101Z,-3.20
2022-12-14T21:26:17.565Z,-3.40
2022-12-14T21:31:25.844Z,-3.50
2022-12-14T21:36:34.815Z,-3.60
2022-12-14T21:41:43.418Z,-3.80
2022-12-14T21:46:52.113Z,-4.00
2022-12-14T21:52:02.364Z,-4.20
2022-12-14T21:57:08.638Z,-4.50
2022-12-14T22:02:17.173Z,-4.80
2022-12-14T22:07:25.918Z,-5.00
2022-12-14T22:12:34.320Z,-5.20
2022-12-14T22:17:43.168Z,-5.30
2022-12-14T22:22:51.693Z,-5.40
2022-12-14T22:28:00.036Z,-5.50
2022-12-14T22:33:08.543Z,-5.70
2022-12-14T22:38:17.337Z,-6.00
2022-12-14T22:43:29.739Z,-6.20
2022-12-14T22:48:33.945Z,-6.30
2022-12-14T22:53:42.476Z,-6.40
2022-12-14T22:58:50.986Z,-6.30
2022-12-14T23:03:59.389Z,-6.30
2022-12-14T23:09:07.892Z,-6.20
2022-12-14T23:14:16.709Z,-6.20
2022-12-14T23:19:25.465Z,-6.20
2022-12-14T23:24:34.093Z,-6.10
2022-12-14T23:29:42.693Z,-6.10
2022-12-14T23:34:51.075Z,-6.20
2022-12-14T23:39:59.349Z,-6.30
2022-12-14T23:45:08.018Z,-6.40
2022-12-14T23:50:16.812Z,-6.40
2022-12-14T23:55:25.277Z,-6.30
